sensor_id;sensor_type;location;lat;lon;timestamp;P1;durP1;ratioP1;P2;durP2;ratioP2
23370;SDS011;11858;51.056;3.712;2022-09-21T00:01:04;25.23;;;22.70;;
23370;SDS011;11858;51.056;3.712;2022-09-21T00:03:36;24.85;;;22.35;;
23370;SDS011;11858;51.056;3.712;2022-09-21T00:06:36;24.27;;;21.75;;
23370;SDS011;11858;51.056;3.712;2022-09-21T00:08:57;26.20;;;20.90;;
23370;SDS011;11858;51.056;3.712;2022-09-21T00:11:24;24.23;;;21.63;;
23370;SDS011;11858;51.056;3.712;2022-09-21T00:13:56;24.67;;;20.95;;
23370;SDS011;11858;51.056;3.712;2022-09-21T00:16:25;25.58;;;21.30;;
23370;SDS011;11858;51.056;3.712;2022-09-21T00:18:51;28.23;;;21.00;;
23370;SDS011;11858;51.056;3.712;2022-09-21T00:21:17;25.35;;;21.33;;
23370;SDS011;11858;51.056;3.712;2022-09-21T00:23:43;29.73;;;22.27;;
23370;SDS011;11858;51.056;3.712;2022-09-21T00:26:17;23.52;;;21.05;;
23370;SDS011;11858;51.056;3.712;2022-09-21T00:28:45;23.80;;;21.45;;
23370;SDS011;11858;51.056;3.712;2022-09-21T00:31:13;29.90;;;21.50;;
23370;SDS011;11858;51.056;3.712;2022-09-21T00:33:42;24.60;;;21.92;;
23370;SDS011;11858;51.056;3.712;2022-09-21T00:36:12;30.05;;;22.45;;
23370;SDS011;11858;51.056;3.712;2022-09-21T00:38:43;26.48;;;21.40;;
23370;SDS011;11858;51.056;3.712;2022-09-21T00:41:13;25.80;;;22.33;;
23370;SDS011;11858;51.056;3.712;2022-09-21T00:43:43;25.90;;;22.40;;
23370;SDS011;11858;51.056;3.712;2022-09-21T00:46:13;25.60;;;22.95;;
23370;SDS011;11858;51.056;3.712;2022-09-21T00:48:59;27.92;;;22.70;;
23370;SDS011;11858;51.056;3.712;2022-09-21T00:51:25;25.40;;;21.42;;
23370;SDS011;11858;51.056;3.712;2022-09-21T00:53:52;25.27;;;21.20;;
23370;SDS011;11858;51.056;3.712;2022-09-21T00:56:23;24.13;;;21.73;;
23370;SDS011;11858;51.056;3.712;2022-09-21T00:58:50;25.05;;;21.98;;
23370;SDS011;11858;51.056;3.712;2022-09-21T01:01:24;26.02;;;23.25;;
23370;SDS011;11858;51.056;3.712;2022-09-21T01:03:50;28.52;;;23.17;;
23370;SDS011;11858;51.056;3.712;2022-09-21T01:06:18;24.92;;;22.38;;
23370;SDS011;11858;51.056;3.712;2022-09-21T01:08:45;28.80;;;22.95;;
23370;SDS011;11858;51.056;3.712;2022-09-21T01:30:23;27.83;;;23.88;;
23370;SDS011;11858;51.056;3.712;2022-09-21T01:33:02;31.40;;;23.13;;
23370;SDS011;11858;51.056;3.712;2022-09-21T01:35:46;27.70;;;23.13;;
23370;SDS011;11858;51.056;3.712;2022-09-21T01:38:24;33.10;;;23.60;;
23370;SDS011;11858;51.056;3.712;2022-09-21T01:40:55;26.35;;;23.10;;
23370;SDS011;11858;51.056;3.712;2022-09-21T01:43:45;25.33;;;22.35;;
23370;SDS011;11858;51.056;3.712;2022-09-21T01:46:16;27.90;;;24.13;;
23370;SDS011;11858;51.056;3.712;2022-09-21T01:48:52;30.77;;;23.80;;
23370;SDS011;11858;51.056;3.712;2022-09-21T01:51:24;29.67;;;23.88;;
23370;SDS011;11858;51.056;3.712;2022-09-21T01:56:54;33.28;;;24.08;;
23370;SDS011;11858;51.056;3.712;2022-09-21T01:59:35;28.00;;;22.48;;
23370;SDS011;11858;51.056;3.712;2022-09-21T02:02:18;26.05;;;23.25;;
23370;SDS011;11858;51.056;3.712;2022-09-21T02:04:55;27.88;;;23.15;;
23370;SDS011;11858;51.056;3.712;2022-09-21T02:07:22;27.30;;;22.90;;
23370;SDS011;11858;51.056;3.712;2022-09-21T02:09:49;28.23;;;24.48;;
23370;SDS011;11858;51.056;3.712;2022-09-21T02:12:15;25.55;;;22.83;;
23370;SDS011;11858;51.056;3.712;2022-09-21T02:14:41;27.35;;;22.85;;
23370;SDS011;11858;51.056;3.712;2022-09-21T02:30:54;32.30;;;25.15;;
23370;SDS011;11858;51.056;3.712;2022-09-21T02:33:30;28.30;;;25.20;;
23370;SDS011;11858;51.056;3.712;2022-09-21T02:40:54;28.23;;;25.20;;
23370;SDS011;11858;51.056;3.712;2022-09-21T02:49:24;29.08;;;25.65;;
23370;SDS011;11858;51.056;3.712;2022-09-21T02:51:59;34.97;;;26.50;;
23370;SDS011;11858;51.056;3.712;2022-09-21T02:54:31;33.70;;;27.13;;
23370;SDS011;11858;51.056;3.712;2022-09-21T02:56:58;29.23;;;25.60;;
23370;SDS011;11858;51.056;3.712;2022-09-21T02:59:26;29.05;;;26.10;;
23370;SDS011;11858;51.056;3.712;2022-09-21T03:01:52;32.88;;;26.85;;
23370;SDS011;11858;51.056;3.712;2022-09-21T03:04:19;31.30;;;28.02;;
23370;SDS011;11858;51.056;3.712;2022-09-21T03:06:46;32.17;;;28.35;;
23370;SDS011;11858;51.056;3.712;2022-09-21T03:09:12;31.77;;;28.33;;
23370;SDS011;11858;51.056;3.712;2022-09-21T03:11:38;32.35;;;29.13;;
23370;SDS011;11858;51.056;3.712;2022-09-21T03:14:06;30.67;;;27.38;;
23370;SDS011;11858;51.056;3.712;2022-09-21T03:16:36;35.25;;;28.63;;
23370;SDS011;11858;51.056;3.712;2022-09-21T03:19:02;31.08;;;27.88;;
23370;SDS011;11858;51.056;3.712;2022-09-21T03:21:29;31.15;;;27.90;;
23370;SDS011;11858;51.056;3.712;2022-09-21T03:23:55;31.63;;;28.35;;
23370;SDS011;11858;51.056;3.712;2022-09-21T03:26:20;31.63;;;28.27;;
23370;SDS011;11858;51.056;3.712;2022-09-21T03:28:47;31.27;;;28.10;;
23370;SDS011;11858;51.056;3.712;2022-09-21T03:31:13;30.02;;;26.83;;
23370;SDS011;11858;51.056;3.712;2022-09-21T03:33:39;29.13;;;26.25;;
23370;SDS011;11858;51.056;3.712;2022-09-21T03:36:05;32.58;;;29.17;;
23370;SDS011;11858;51.056;3.712;2022-09-21T03:38:32;31.65;;;27.25;;
23370;SDS011;11858;51.056;3.712;2022-09-21T03:40:58;30.45;;;27.25;;
23370;SDS011;11858;51.056;3.712;2022-09-21T03:43:24;29.50;;;26.38;;
23370;SDS011;11858;51.056;3.712;2022-09-21T03:45:50;31.27;;;28.02;;
23370;SDS011;11858;51.056;3.712;2022-09-21T03:48:16;30.05;;;26.20;;
23370;SDS011;11858;51.056;3.712;2022-09-21T03:50:41;33.25;;;28.80;;
23370;SDS011;11858;51.056;3.712;2022-09-21T03:53:07;30.20;;;27.02;;
23370;SDS011;11858;51.056;3.712;2022-09-21T03:55:34;30.67;;;27.40;;
23370;SDS011;11858;51.056;3.712;2022-09-21T03:58:00;29.83;;;27.02;;
23370;SDS011;11858;51.056;3.712;2022-09-21T04:00:26;32.22;;;27.40;;
23370;SDS011;11858;51.056;3.712;2022-09-21T04:02:52;30.73;;;27.52;;
23370;SDS011;11858;51.056;3.712;2022-09-21T04:05:18;31.48;;;28.08;;
23370;SDS011;11858;51.056;3.712;2022-09-21T04:07:44;31.95;;;28.65;;
23370;SDS011;11858;51.056;3.712;2022-09-21T04:10:11;32.95;;;29.35;;
23370;SDS011;11858;51.056;3.712;2022-09-21T04:12:39;33.85;;;28.55;;
23370;SDS011;11858;51.056;3.712;2022-09-21T04:15:10;29.40;;;26.48;;
23370;SDS011;11858;51.056;3.712;2022-09-21T04:17:36;30.70;;;27.67;;
23370;SDS011;11858;51.056;3.712;2022-09-21T04:20:03;31.85;;;28.92;;
23370;SDS011;11858;51.056;3.712;2022-09-21T04:22:29;31.50;;;28.20;;
23370;SDS011;11858;51.056;3.712;2022-09-21T04:24:55;36.58;;;26.88;;
23370;SDS011;11858;51.056;3.712;2022-09-21T04:27:21;30.23;;;26.83;;
23370;SDS011;11858;51.056;3.712;2022-09-21T04:29:48;30.83;;;27.50;;
23370;SDS011;11858;51.056;3.712;2022-09-21T04:32:13;30.75;;;24.60;;
23370;SDS011;11858;51.056;3.712;2022-09-21T04:34:43;27.92;;;24.92;;
23370;SDS011;11858;51.056;3.712;2022-09-21T04:37:08;28.52;;;24.45;;
23370;SDS011;11858;51.056;3.712;2022-09-21T04:39:36;29.33;;;25.85;;
23370;SDS011;11858;51.056;3.712;2022-09-21T04:42:02;30.05;;;25.58;;
23370;SDS011;11858;51.056;3.712;2022-09-21T04:44:28;31.42;;;27.38;;
23370;SDS011;11858;51.056;3.712;2022-09-21T04:46:55;31.17;;;26.50;;
23370;SDS011;11858;51.056;3.712;2022-09-21T04:49:24;30.10;;;26.38;;
23370;SDS011;11858;51.056;3.712;2022-09-21T04:51:50;33.33;;;27.58;;
23370;SDS011;11858;51.056;3.712;2022-09-21T04:54:16;31.38;;;27.95;;
23370;SDS011;11858;51.056;3.712;2022-09-21T04:56:42;36.65;;;28.52;;
23370;SDS011;11858;51.056;3.712;2022-09-21T04:59:07;33.22;;;27.30;;
23370;SDS011;11858;51.056;3.712;2022-09-21T05:01:33;32.50;;;27.70;;
23370;SDS011;11858;51.056;3.712;2022-09-21T05:03:59;35.75;;;28.05;;
23370;SDS011;11858;51.056;3.712;2022-09-21T05:06:28;35.13;;;27.23;;
23370;SDS011;11858;51.056;3.712;2022-09-21T05:08:55;36.83;;;27.65;;
23370;SDS011;11858;51.056;3.712;2022-09-21T05:11:39;33.63;;;28.60;;
23370;SDS011;11858;51.056;3.712;2022-09-21T05:14:05;38.88;;;30.08;;
23370;SDS011;11858;51.056;3.712;2022-09-21T05:16:31;40.38;;;30.60;;
23370;SDS011;11858;51.056;3.712;2022-09-21T05:18:57;38.70;;;30.08;;
23370;SDS011;11858;51.056;3.712;2022-09-21T05:21:23;34.05;;;29.83;;
23370;SDS011;11858;51.056;3.712;2022-09-21T05:23:49;38.60;;;30.40;;
23370;SDS011;11858;51.056;3.712;2022-09-21T05:26:15;37.35;;;29.35;;
23370;SDS011;11858;51.056;3.712;2022-09-21T05:28:40;35.58;;;27.92;;
23370;SDS011;11858;51.056;3.712;2022-09-21T05:33:51;30.50;;;27.27;;
23370;SDS011;11858;51.056;3.712;2022-09-21T05:36:49;33.58;;;27.70;;
23370;SDS011;11858;51.056;3.712;2022-09-21T05:39:21;30.40;;;26.27;;
23370;SDS011;11858;51.056;3.712;2022-09-21T05:41:47;33.75;;;26.50;;
23370;SDS011;11858;51.056;3.712;2022-09-21T05:44:13;37.28;;;28.17;;
23370;SDS011;11858;51.056;3.712;2022-09-21T05:49:21;33.75;;;26.02;;
23370;SDS011;11858;51.056;3.712;2022-09-21T05:51:58;45.40;;;40.63;;
23370;SDS011;11858;51.056;3.712;2022-09-21T05:57:40;37.92;;;26.05;;
23370;SDS011;11858;51.056;3.712;2022-09-21T06:00:19;31.43;;;24.40;;
23370;SDS011;11858;51.056;3.712;2022-09-21T06:05:22;31.80;;;23.90;;
23370;SDS011;11858;51.056;3.712;2022-09-21T06:07:48;30.52;;;23.60;;
23370;SDS011;11858;51.056;3.712;2022-09-21T06:10:13;31.65;;;23.30;;
23370;SDS011;11858;51.056;3.712;2022-09-21T06:12:40;29.20;;;24.10;;
23370;SDS011;11858;51.056;3.712;2022-09-21T06:15:06;28.08;;;24.00;;
23370;SDS011;11858;51.056;3.712;2022-09-21T06:17:38;28.83;;;22.25;;
23370;SDS011;11858;51.056;3.712;2022-09-21T06:20:04;30.63;;;24.25;;
23370;SDS011;11858;51.056;3.712;2022-09-21T06:22:31;27.20;;;23.02;;
23370;SDS011;11858;51.056;3.712;2022-09-21T06:24:57;26.20;;;21.85;;
23370;SDS011;11858;51.056;3.712;2022-09-21T06:27:23;30.02;;;21.42;;
23370;SDS011;11858;51.056;3.712;2022-09-21T06:29:49;29.05;;;21.90;;
23370;SDS011;11858;51.056;3.712;2022-09-21T06:32:14;27.40;;;21.08;;
23370;SDS011;11858;51.056;3.712;2022-09-21T06:34:40;37.78;;;21.02;;
23370;SDS011;11858;51.056;3.712;2022-09-21T06:37:07;29.15;;;21.17;;
23370;SDS011;11858;51.056;3.712;2022-09-21T06:39:33;31.25;;;21.50;;
23370;SDS011;11858;51.056;3.712;2022-09-21T06:41:58;32.47;;;20.88;;
23370;SDS011;11858;51.056;3.712;2022-09-21T06:44:24;28.52;;;20.75;;
23370;SDS011;11858;51.056;3.712;2022-09-21T06:46:50;27.35;;;20.60;;
23370;SDS011;11858;51.056;3.712;2022-09-21T06:49:15;24.25;;;19.55;;
23370;SDS011;11858;51.056;3.712;2022-09-21T06:51:41;29.92;;;20.00;;
23370;SDS011;11858;51.056;3.712;2022-09-21T06:54:11;37.85;;;19.83;;
23370;SDS011;11858;51.056;3.712;2022-09-21T06:56:36;34.45;;;19.38;;
23370;SDS011;11858;51.056;3.712;2022-09-21T06:59:02;29.83;;;20.42;;
23370;SDS011;11858;51.056;3.712;2022-09-21T07:01:28;33.05;;;19.75;;
23370;SDS011;11858;51.056;3.712;2022-09-21T07:03:54;35.58;;;22.55;;
23370;SDS011;11858;51.056;3.712;2022-09-21T07:06:19;32.38;;;18.33;;
23370;SDS011;11858;51.056;3.712;2022-09-21T07:08:50;23.55;;;16.80;;
23370;SDS011;11858;51.056;3.712;2022-09-21T07:11:17;27.25;;;17.55;;
23370;SDS011;11858;51.056;3.712;2022-09-21T07:13:43;33.00;;;19.05;;
23370;SDS011;11858;51.056;3.712;2022-09-21T07:16:09;25.17;;;18.20;;
23370;SDS011;11858;51.056;3.712;2022-09-21T07:18:36;30.60;;;18.38;;
23370;SDS011;11858;51.056;3.712;2022-09-21T07:21:05;26.60;;;18.20;;
23370;SDS011;11858;51.056;3.712;2022-09-21T07:23:31;29.38;;;17.75;;
23370;SDS011;11858;51.056;3.712;2022-09-21T07:26:01;32.63;;;19.10;;
23370;SDS011;11858;51.056;3.712;2022-09-21T07:28:29;32.33;;;18.38;;
23370;SDS011;11858;51.056;3.712;2022-09-21T07:30:56;29.40;;;19.23;;
23370;SDS011;11858;51.056;3.712;2022-09-21T07:33:23;28.85;;;18.98;;
23370;SDS011;11858;51.056;3.712;2022-09-21T07:35:50;38.85;;;20.77;;
23370;SDS011;11858;51.056;3.712;2022-09-21T07:38:20;31.23;;;20.55;;
23370;SDS011;11858;51.056;3.712;2022-09-21T07:40:46;37.35;;;20.77;;
23370;SDS011;11858;51.056;3.712;2022-09-21T07:43:12;42.42;;;21.48;;
23370;SDS011;11858;51.056;3.712;2022-09-21T07:45:38;28.50;;;17.40;;
23370;SDS011;11858;51.056;3.712;2022-09-21T07:48:04;22.83;;;18.10;;
23370;SDS011;11858;51.056;3.712;2022-09-21T07:50:30;24.02;;;16.98;;
23370;SDS011;11858;51.056;3.712;2022-09-21T07:52:58;19.30;;;15.07;;
23370;SDS011;11858;51.056;3.712;2022-09-21T07:55:24;18.90;;;14.57;;
23370;SDS011;11858;51.056;3.712;2022-09-21T07:57:50;21.35;;;14.48;;
23370;SDS011;11858;51.056;3.712;2022-09-21T08:00:45;19.15;;;14.75;;
23370;SDS011;11858;51.056;3.712;2022-09-21T08:03:10;18.67;;;14.63;;
23370;SDS011;11858;51.056;3.712;2022-09-21T08:05:36;18.00;;;14.30;;
23370;SDS011;11858;51.056;3.712;2022-09-21T08:08:02;21.80;;;14.73;;
23370;SDS011;11858;51.056;3.712;2022-09-21T08:10:28;14.75;;;13.27;;
23370;SDS011;11858;51.056;3.712;2022-09-21T08:12:54;21.13;;;14.35;;
23370;SDS011;11858;51.056;3.712;2022-09-21T08:15:21;18.00;;;13.40;;
23370;SDS011;11858;51.056;3.712;2022-09-21T08:17:47;18.50;;;13.40;;
23370;SDS011;11858;51.056;3.712;2022-09-21T08:20:12;16.20;;;13.00;;
23370;SDS011;11858;51.056;3.712;2022-09-21T08:22:39;16.52;;;13.48;;
23370;SDS011;11858;51.056;3.712;2022-09-21T08:25:05;14.73;;;12.18;;
23370;SDS011;11858;51.056;3.712;2022-09-21T08:27:31;13.93;;;12.40;;
23370;SDS011;11858;51.056;3.712;2022-09-21T08:29:56;14.30;;;12.80;;
23370;SDS011;11858;51.056;3.712;2022-09-21T08:32:22;12.77;;;11.40;;
23370;SDS011;11858;51.056;3.712;2022-09-21T08:34:47;14.40;;;10.50;;
23370;SDS011;11858;51.056;3.712;2022-09-21T08:37:14;19.35;;;11.88;;
23370;SDS011;11858;51.056;3.712;2022-09-21T08:39:40;13.65;;;11.18;;
23370;SDS011;11858;51.056;3.712;2022-09-21T08:42:13;16.30;;;11.68;;
23370;SDS011;11858;51.056;3.712;2022-09-21T08:44:52;33.90;;;13.70;;
23370;SDS011;11858;51.056;3.712;2022-09-21T08:47:34;15.80;;;10.77;;
23370;SDS011;11858;51.056;3.712;2022-09-21T08:53:14;18.40;;;11.15;;
23370;SDS011;11858;51.056;3.712;2022-09-21T08:55:43;14.55;;;10.38;;
23370;SDS011;11858;51.056;3.712;2022-09-21T09:00:47;22.05;;;14.82;;
23370;SDS011;11858;51.056;3.712;2022-09-21T09:06:09;14.85;;;10.32;;
23370;SDS011;11858;51.056;3.712;2022-09-21T09:17:37;12.02;;;9.35;;
23370;SDS011;11858;51.056;3.712;2022-09-21T09:22:44;11.40;;;9.05;;
23370;SDS011;11858;51.056;3.712;2022-09-21T09:25:25;9.60;;;7.88;;
23370;SDS011;11858;51.056;3.712;2022-09-21T09:27:57;11.77;;;8.25;;
23370;SDS011;11858;51.056;3.712;2022-09-21T09:30:27;9.40;;;8.30;;
23370;SDS011;11858;51.056;3.712;2022-09-21T09:32:57;11.15;;;8.25;;
23370;SDS011;11858;51.056;3.712;2022-09-21T09:38:18;13.90;;;9.15;;
23370;SDS011;11858;51.056;3.712;2022-09-21T09:41:14;13.25;;;8.75;;
23370;SDS011;11858;51.056;3.712;2022-09-21T09:44:05;11.93;;;9.80;;
23370;SDS011;11858;51.056;3.712;2022-09-21T09:46:56;14.77;;;10.35;;
23370;SDS011;11858;51.056;3.712;2022-09-21T09:52:11;10.50;;;9.32;;
23370;SDS011;11858;51.056;3.712;2022-09-21T09:54:39;10.57;;;9.07;;
23370;SDS011;11858;51.056;3.712;2022-09-21T09:57:05;14.38;;;9.50;;
23370;SDS011;11858;51.056;3.712;2022-09-21T09:59:49;13.48;;;9.45;;
23370;SDS011;11858;51.056;3.712;2022-09-21T10:02:20;9.65;;;8.52;;
23370;SDS011;11858;51.056;3.712;2022-09-21T10:04:57;10.55;;;8.23;;
23370;SDS011;11858;51.056;3.712;2022-09-21T10:07:34;12.13;;;9.25;;
23370;SDS011;11858;51.056;3.712;2022-09-21T10:10:06;11.00;;;9.10;;
23370;SDS011;11858;51.056;3.712;2022-09-21T10:13:01;10.50;;;8.90;;
23370;SDS011;11858;51.056;3.712;2022-09-21T10:15:47;9.80;;;8.43;;
23370;SDS011;11858;51.056;3.712;2022-09-21T10:18:17;12.70;;;9.93;;
23370;SDS011;11858;51.056;3.712;2022-09-21T10:20:53;12.75;;;9.27;;
23370;SDS011;11858;51.056;3.712;2022-09-21T10:23:24;21.50;;;10.90;;
23370;SDS011;11858;51.056;3.712;2022-09-21T10:26:04;12.93;;;8.88;;
23370;SDS011;11858;51.056;3.712;2022-09-21T10:28:34;14.63;;;9.65;;
23370;SDS011;11858;51.056;3.712;2022-09-21T10:31:11;11.93;;;9.10;;
23370;SDS011;11858;51.056;3.712;2022-09-21T10:33:46;9.65;;;8.65;;
23370;SDS011;11858;51.056;3.712;2022-09-21T10:36:24;11.10;;;9.00;;
23370;SDS011;11858;51.056;3.712;2022-09-21T10:38:55;13.75;;;9.50;;
23370;SDS011;11858;51.056;3.712;2022-09-21T10:41:35;12.95;;;9.35;;
23370;SDS011;11858;51.056;3.712;2022-09-21T10:44:01;9.77;;;8.85;;
23370;SDS011;11858;51.056;3.712;2022-09-21T10:46:32;10.68;;;8.70;;
23370;SDS011;11858;51.056;3.712;2022-09-21T10:48:59;9.00;;;8.20;;
23370;SDS011;11858;51.056;3.712;2022-09-21T10:51:27;14.95;;;10.57;;
23370;SDS011;11858;51.056;3.712;2022-09-21T10:53:54;19.67;;;12.15;;
23370;SDS011;11858;51.056;3.712;2022-09-21T10:56:20;9.38;;;8.43;;
23370;SDS011;11858;51.056;3.712;2022-09-21T11:01:46;11.55;;;9.75;;
23370;SDS011;11858;51.056;3.712;2022-09-21T11:04:15;10.48;;;9.38;;
23370;SDS011;11858;51.056;3.712;2022-09-21T11:06:47;10.43;;;8.45;;
23370;SDS011;11858;51.056;3.712;2022-09-21T11:09:19;14.85;;;9.10;;
23370;SDS011;11858;51.056;3.712;2022-09-21T11:11:58;12.40;;;9.20;;
23370;SDS011;11858;51.056;3.712;2022-09-21T11:17:29;11.00;;;9.73;;
23370;SDS011;11858;51.056;3.712;2022-09-21T11:25:49;10.20;;;9.20;;
23370;SDS011;11858;51.056;3.712;2022-09-21T11:31:18;8.00;;;7.43;;
23370;SDS011;11858;51.056;3.712;2022-09-21T11:42:40;11.23;;;8.20;;
23370;SDS011;11858;51.056;3.712;2022-09-21T12:04:35;9.10;;;8.30;;
23370;SDS011;11858;51.056;3.712;2022-09-21T12:07:33;11.25;;;8.73;;
23370;SDS011;11858;51.056;3.712;2022-09-21T12:10:43;9.43;;;8.48;;
23370;SDS011;11858;51.056;3.712;2022-09-21T12:13:12;9.07;;;7.80;;
23370;SDS011;11858;51.056;3.712;2022-09-21T12:16:10;10.20;;;8.20;;
23370;SDS011;11858;51.056;3.712;2022-09-21T12:18:54;9.20;;;7.60;;
23370;SDS011;11858;51.056;3.712;2022-09-21T12:21:42;10.05;;;8.00;;
23370;SDS011;11858;51.056;3.712;2022-09-21T12:24:17;11.27;;;7.80;;
23370;SDS011;11858;51.056;3.712;2022-09-21T12:26:55;9.80;;;7.55;;
23370;SDS011;11858;51.056;3.712;2022-09-21T12:29:30;12.50;;;8.20;;
23370;SDS011;11858;51.056;3.712;2022-09-21T12:32:23;9.02;;;8.13;;
23370;SDS011;11858;51.056;3.712;2022-09-21T12:35:17;10.88;;;8.82;;
23370;SDS011;11858;51.056;3.712;2022-09-21T12:37:56;13.05;;;8.48;;
23370;SDS011;11858;51.056;3.712;2022-09-21T12:43:20;10.30;;;9.20;;
23370;SDS011;11858;51.056;3.712;2022-09-21T12:46:01;16.02;;;9.50;;
23370;SDS011;11858;51.056;3.712;2022-09-21T12:48:32;10.30;;;8.70;;
23370;SDS011;11858;51.056;3.712;2022-09-21T12:51:17;12.68;;;8.38;;
23370;SDS011;11858;51.056;3.712;2022-09-21T12:53:55;11.02;;;8.50;;
23370;SDS011;11858;51.056;3.712;2022-09-21T12:56:53;9.07;;;8.00;;
23370;SDS011;11858;51.056;3.712;2022-09-21T12:59:35;9.30;;;7.78;;
23370;SDS011;11858;51.056;3.712;2022-09-21T13:02:21;11.27;;;7.10;;
23370;SDS011;11858;51.056;3.712;2022-09-21T13:05:19;9.68;;;7.85;;
23370;SDS011;11858;51.056;3.712;2022-09-21T13:07:58;11.80;;;7.75;;
23370;SDS011;11858;51.056;3.712;2022-09-21T13:13:22;9.35;;;8.35;;
23370;SDS011;11858;51.056;3.712;2022-09-21T13:15:54;9.40;;;8.00;;
23370;SDS011;11858;51.056;3.712;2022-09-21T13:21:16;9.23;;;7.90;;
23370;SDS011;11858;51.056;3.712;2022-09-21T13:24:02;7.75;;;7.07;;
23370;SDS011;11858;51.056;3.712;2022-09-21T13:26:37;8.45;;;7.60;;
23370;SDS011;11858;51.056;3.712;2022-09-21T13:29:23;7.90;;;7.10;;
23370;SDS011;11858;51.056;3.712;2022-09-21T13:34:25;8.25;;;7.47;;
23370;SDS011;11858;51.056;3.712;2022-09-21T13:47:43;9.85;;;8.80;;
23370;SDS011;11858;51.056;3.712;2022-09-21T13:53:20;9.48;;;8.20;;
23370;SDS011;11858;51.056;3.712;2022-09-21T13:55:50;10.10;;;8.70;;
23370;SDS011;11858;51.056;3.712;2022-09-21T14:00:57;12.25;;;8.60;;
23370;SDS011;11858;51.056;3.712;2022-09-21T14:06:07;12.50;;;8.80;;
23370;SDS011;11858;51.056;3.712;2022-09-21T14:08:48;10.75;;;8.30;;
23370;SDS011;11858;51.056;3.712;2022-09-21T14:24:34;12.77;;;9.00;;
23370;SDS011;11858;51.056;3.712;2022-09-21T14:35:39;10.13;;;8.63;;
23370;SDS011;11858;51.056;3.712;2022-09-21T14:40:47;13.30;;;9.63;;
23370;SDS011;11858;51.056;3.712;2022-09-21T14:43:17;11.02;;;9.10;;
23370;SDS011;11858;51.056;3.712;2022-09-21T14:51:43;13.68;;;8.82;;
23370;SDS011;11858;51.056;3.712;2022-09-21T15:02:38;9.90;;;8.60;;
23370;SDS011;11858;51.056;3.712;2022-09-21T15:07:37;9.95;;;8.95;;
23370;SDS011;11858;51.056;3.712;2022-09-21T15:10:47;11.32;;;8.18;;
23370;SDS011;11858;51.056;3.712;2022-09-21T15:13:30;11.55;;;9.07;;
23370;SDS011;11858;51.056;3.712;2022-09-21T15:16:13;9.57;;;8.60;;
23370;SDS011;11858;51.056;3.712;2022-09-21T15:18:46;11.23;;;8.85;;
23370;SDS011;11858;51.056;3.712;2022-09-21T15:21:33;8.43;;;7.53;;
23370;SDS011;11858;51.056;3.712;2022-09-21T15:24:00;10.40;;;9.40;;
23370;SDS011;11858;51.056;3.712;2022-09-21T15:26:41;10.73;;;9.43;;
23370;SDS011;11858;51.056;3.712;2022-09-21T15:29:11;12.00;;;10.57;;
23370;SDS011;11858;51.056;3.712;2022-09-21T15:31:55;11.15;;;9.95;;
23370;SDS011;11858;51.056;3.712;2022-09-21T15:34:21;15.68;;;10.65;;
23370;SDS011;11858;51.056;3.712;2022-09-21T15:36:48;16.38;;;10.55;;
23370;SDS011;11858;51.056;3.712;2022-09-21T15:39:23;13.43;;;9.52;;
23370;SDS011;11858;51.056;3.712;2022-09-21T15:44:34;10.93;;;9.68;;
23370;SDS011;11858;51.056;3.712;2022-09-21T15:47:01;11.35;;;10.13;;
23370;SDS011;11858;51.056;3.712;2022-09-21T15:54:40;11.70;;;9.30;;
23370;SDS011;11858;51.056;3.712;2022-09-21T16:00:00;9.98;;;8.95;;
23370;SDS011;11858;51.056;3.712;2022-09-21T16:02:49;11.75;;;9.73;;
23370;SDS011;11858;51.056;3.712;2022-09-21T16:05:20;13.27;;;10.00;;
23370;SDS011;11858;51.056;3.712;2022-09-21T16:07:47;10.50;;;9.50;;
23370;SDS011;11858;51.056;3.712;2022-09-21T16:10:33;10.43;;;8.43;;
23370;SDS011;11858;51.056;3.712;2022-09-21T16:13:11;11.35;;;8.32;;
23370;SDS011;11858;51.056;3.712;2022-09-21T16:16:02;9.32;;;8.50;;
23370;SDS011;11858;51.056;3.712;2022-09-21T16:18:31;8.52;;;7.82;;
23370;SDS011;11858;51.056;3.712;2022-09-21T16:21:28;11.93;;;9.63;;
23370;SDS011;11858;51.056;3.712;2022-09-21T16:24:31;13.77;;;9.93;;
23370;SDS011;11858;51.056;3.712;2022-09-21T16:27:01;11.02;;;9.60;;
23370;SDS011;11858;51.056;3.712;2022-09-21T16:29:37;13.48;;;9.68;;
23370;SDS011;11858;51.056;3.712;2022-09-21T16:37:58;9.55;;;8.73;;
23370;SDS011;11858;51.056;3.712;2022-09-21T16:40:25;12.32;;;9.02;;
23370;SDS011;11858;51.056;3.712;2022-09-21T16:42:52;10.63;;;9.10;;
23370;SDS011;11858;51.056;3.712;2022-09-21T16:45:28;9.63;;;8.80;;
23370;SDS011;11858;51.056;3.712;2022-09-21T16:47:56;17.48;;;9.65;;
23370;SDS011;11858;51.056;3.712;2022-09-21T16:50:23;11.15;;;8.65;;
23370;SDS011;11858;51.056;3.712;2022-09-21T16:52:49;10.77;;;8.70;;
23370;SDS011;11858;51.056;3.712;2022-09-21T16:55:19;13.13;;;8.35;;
23370;SDS011;11858;51.056;3.712;2022-09-21T16:57:45;13.45;;;9.63;;
23370;SDS011;11858;51.056;3.712;2022-09-21T17:00:14;9.73;;;8.77;;
23370;SDS011;11858;51.056;3.712;2022-09-21T17:02:46;11.48;;;10.25;;
23370;SDS011;11858;51.056;3.712;2022-09-21T17:05:13;12.18;;;9.32;;
23370;SDS011;11858;51.056;3.712;2022-09-21T17:08:02;13.68;;;10.00;;
23370;SDS011;11858;51.056;3.712;2022-09-21T17:10:30;10.30;;;9.23;;
23370;SDS011;11858;51.056;3.712;2022-09-21T17:13:00;11.65;;;9.00;;
23370;SDS011;11858;51.056;3.712;2022-09-21T17:15:29;13.82;;;9.07;;
23370;SDS011;11858;51.056;3.712;2022-09-21T17:17:56;10.90;;;8.70;;
23370;SDS011;11858;51.056;3.712;2022-09-21T17:20:32;15.30;;;9.15;;
23370;SDS011;11858;51.056;3.712;2022-09-21T17:23:00;10.90;;;8.93;;
23370;SDS011;11858;51.056;3.712;2022-09-21T17:25:27;10.45;;;9.38;;
23370;SDS011;11858;51.056;3.712;2022-09-21T17:27:54;10.25;;;9.32;;
23370;SDS011;11858;51.056;3.712;2022-09-21T17:30:24;12.73;;;9.50;;
23370;SDS011;11858;51.056;3.712;2022-09-21T17:32:50;10.82;;;9.60;;
23370;SDS011;11858;51.056;3.712;2022-09-21T17:38:04;11.93;;;9.65;;
23370;SDS011;11858;51.056;3.712;2022-09-21T17:40:32;10.25;;;9.25;;
23370;SDS011;11858;51.056;3.712;2022-09-21T17:43:14;10.75;;;9.75;;
23370;SDS011;11858;51.056;3.712;2022-09-21T17:45:49;14.18;;;10.40;;
23370;SDS011;11858;51.056;3.712;2022-09-21T17:50:57;16.92;;;11.65;;
23370;SDS011;11858;51.056;3.712;2022-09-21T17:53:23;18.08;;;13.82;;
23370;SDS011;11858;51.056;3.712;2022-09-21T17:55:59;17.10;;;13.88;;
23370;SDS011;11858;51.056;3.712;2022-09-21T18:03:55;18.45;;;13.45;;
23370;SDS011;11858;51.056;3.712;2022-09-21T18:06:22;19.75;;;13.20;;
23370;SDS011;11858;51.056;3.712;2022-09-21T18:08:48;16.50;;;14.52;;
23370;SDS011;11858;51.056;3.712;2022-09-21T18:16:46;13.57;;;12.30;;
23370;SDS011;11858;51.056;3.712;2022-09-21T18:22:27;18.65;;;13.00;;
23370;SDS011;11858;51.056;3.712;2022-09-21T18:24:54;23.13;;;15.65;;
23370;SDS011;11858;51.056;3.712;2022-09-21T18:27:21;18.13;;;13.65;;
23370;SDS011;11858;51.056;3.712;2022-09-21T18:29:47;16.40;;;13.38;;
23370;SDS011;11858;51.056;3.712;2022-09-21T18:40:32;16.58;;;13.27;;
23370;SDS011;11858;51.056;3.712;2022-09-21T18:47:01;20.90;;;13.90;;
23370;SDS011;11858;51.056;3.712;2022-09-21T18:49:15;17.15;;;12.77;;
23370;SDS011;11858;51.056;3.712;2022-09-21T18:51:52;18.73;;;14.07;;
23370;SDS011;11858;51.056;3.712;2022-09-21T18:54:31;15.48;;;13.85;;
23370;SDS011;11858;51.056;3.712;2022-09-21T18:56:57;15.55;;;13.95;;
23370;SDS011;11858;51.056;3.712;2022-09-21T18:59:23;18.58;;;15.15;;